Time;durP1;ratioP1;P1;durP2;ratioP2;P2;SDS_P1;SDS_P2;PMS_P1;PMS_P2;Temp;Humidity;BMP_temperature;BMP_pressure;BME280_temperature;BME280_humidity;BME280_pressure;Samples;Min_cycle;Max_cycle;Signal;HPM_P1;HPM_P2
2022/12/16 00:02:00;;;;;;;269.48;126.58;;;;;;;-1.23;79.19;96352.66;1829746;76;25732;-72
2022/12/16 00:04:27;;;;;;;267.23;123.53;;;;;;;-1.21;79.14;96345.88;1829599;77;27750;-70
2022/12/16 00:06:54;;;;;;;271.52;127.45;;;;;;;-1.26;79.13;96343.71;1829976;77;25687;-71
2022/12/16 00:09:20;;;;;;;262.77;122.90;;;;;;;-1.25;79.15;96350.66;1829773;77;25238;-70
2022/12/16 00:11:47;;;;;;;265.12;126.87;;;;;;;-1.25;79.17;96354.64;1844083;77;26076;-70
2022/12/16 00:14:14;;;;;;;263.23;122.53;;;;;;;-1.24;79.24;96354.97;1838570;76;25730;-68
2022/12/16 00:16:41;;;;;;;267.32;127.80;;;;;;;-1.25;79.18;96355.13;1841404;76;28651;-70
2022/12/16 00:19:07;;;;;;;277.68;130.93;;;;;;;-1.27;79.27;96355.29;1841043;77;26243;-68
2022/12/16 00:21:35;;;;;;;302.50;138.62;;;;;;;-1.24;79.31;96350.17;1829470;77;25788;-67
2022/12/16 00:24:02;;;;;;;303.55;134.00;;;;;;;-1.25;79.25;96357.78;1829846;77;26639;-68
2022/12/16 00:26:30;;;;;;;279.45;129.12;;;;;;;-1.25;79.29;96365.23;1829586;77;25877;-68
2022/12/16 00:28:57;;;;;;;280.50;126.70;;;;;;;-1.20;79.39;96369.52;1839528;77;27385;-68
2022/12/16 00:31:24;;;;;;;320.80;137.92;;;;;;;-1.17;79.37;96378.96;1829301;77;25700;-71
2022/12/16 00:33:51;;;;;;;271.52;123.65;;;;;;;-1.20;79.30;96382.76;1836593;76;25696;-68
2022/12/16 00:36:18;;;;;;;273.13;123.90;;;;;;;-1.17;79.38;96386.91;1822378;77;26037;-69
2022/12/16 00:38:45;;;;;;;293.15;127.78;;;;;;;-1.20;79.29;96379.28;1809578;77;25409;-71
2022/12/16 00:41:11;;;;;;;290.68;127.45;;;;;;;-1.25;79.28;96386.91;1850637;76;27398;-69
2022/12/16 00:43:39;;;;;;;275.70;125.70;;;;;;;-1.25;79.38;96378.96;1815487;76;25650;-69
2022/12/16 00:46:05;;;;;;;272.23;124.55;;;;;;;-1.24;79.43;96384.09;1803405;76;25698;-68
2022/12/16 00:48:32;;;;;;;276.85;124.12;;;;;;;-1.24;79.42;96370.86;1803633;77;25716;-68
2022/12/16 00:50:59;;;;;;;270.35;121.60;;;;;;;-1.22;79.43;96359.61;1816024;76;25466;-69
2022/12/16 00:53:26;;;;;;;252.95;113.47;;;;;;;-1.21;79.45;96366.53;1823299;77;27327;-69
2022/12/16 00:56:03;;;;;;;237.32;110.15;;;;;;;-1.20;79.50;96354.95;1803132;77;25676;-67
2022/12/16 00:58:30;;;;;;;233.23;107.83;;;;;;;-1.18;79.47;96363.56;1791000;78;25808;-68
2022/12/16 01:00:57;;;;;;;234.07;107.58;;;;;;;-1.14;79.45;96369.38;1813421;78;26024;-68
2022/12/16 01:03:23;;;;;;;224.37;105.58;;;;;;;-1.14;79.39;96360.94;1813663;78;25833;-69
2022/12/16 01:05:50;;;;;;;233.45;106.43;;;;;;;-1.12;79.42;96362.92;1813406;78;28060;-69
2022/12/16 01:08:17;;;;;;;226.27;106.65;;;;;;;-1.07;79.47;96360.27;1813671;78;25789;-68
2022/12/16 01:10:55;;;;;;;233.53;108.70;;;;;;;-1.03;79.46;96361.59;1813743;78;25718;-68
2022/12/16 01:13:24;;;;;;;243.02;110.35;;;;;;;-1.01;79.38;96351.67;1812161;78;25809;-71
2022/12/16 01:15:51;;;;;;;242.10;112.30;;;;;;;-1.01;79.31;96341.08;1813440;78;25833;-70
2022/12/16 01:18:19;;;;;;;242.43;111.85;;;;;;;-1.02;79.29;96331.47;1810175;78;27394;-69
2022/12/16 01:20:46;;;;;;;228.55;109.40;;;;;;;-1.04;79.25;96323.69;1795103;78;25857;-68
2022/12/16 01:23:12;;;;;;;231.78;108.87;;;;;;;-1.06;79.27;96312.92;1813513;78;25722;-68
2022/12/16 01:25:39;;;;;;;232.45;105.80;;;;;;;-1.07;79.29;96318.72;1813682;78;25761;-67
2022/12/16 01:28:06;;;;;;;230.85;107.85;;;;;;;-1.07;79.31;96309.94;1813683;78;25581;-68
2022/12/16 01:30:32;;;;;;;230.22;110.90;;;;;;;-1.05;79.38;96301.34;1813684;78;27436;-68
2022/12/16 01:32:59;;;;;;;242.85;110.25;;;;;;;-1.03;79.35;96298.86;1813619;78;25713;-68
2022/12/16 01:35:26;;;;;;;257.70;112.35;;;;;;;-1.04;79.35;96292.40;1813667;78;25726;-70
2022/12/16 01:37:52;;;;;;;246.47;111.85;;;;;;;-1.03;79.34;96286.11;1813516;78;26131;-70
2022/12/16 01:40:22;;;;;;;242.55;110.70;;;;;;;-1.01;79.41;96289.42;1813738;78;25643;-68
2022/12/16 01:42:49;;;;;;;236.72;109.40;;;;;;;-0.99;79.44;96281.66;1813826;78;27439;-68
2022/12/16 01:45:33;;;;;;;232.30;108.32;;;;;;;-0.95;79.48;96279.47;1813466;78;26355;-67
2022/12/16 01:48:52;;;;;;;236.60;107.58;;;;;;;-0.93;79.40;96273.52;1813795;78;25738;-70
2022/12/16 01:51:24;;;;;;;229.45;106.25;;;;;;;-0.94;79.33;96282.45;1813590;78;26958;-70
2022/12/16 01:53:53;;;;;;;;;;;;;;;-0.93;79.46;96284.94;1706401;81;25895;-68
2022/12/16 01:56:26;;;;;;;230.65;105.95;;;;;;;-0.90;79.53;96283.78;1732041;81;27393;-72
2022/12/16 01:58:55;;;;;;;222.55;105.87;;;;;;;-0.91;79.43;96281.63;1714026;83;25761;-69
2022/12/16 02:01:22;;;;;;;222.75;107.92;;;;;;;-0.92;79.50;96281.80;1717074;83;25760;-69
2022/12/16 02:03:51;;;;;;;213.50;104.20;;;;;;;-0.90;79.46;96283.78;1717062;83;25803;-69
2022/12/16 02:06:17;;;;;;;212.17;101.53;;;;;;;-0.91;79.38;96279.48;1717171;83;25485;-68
2022/12/16 02:08:44;;;;;;;229.47;108.42;;;;;;;-0.91;79.45;96278.16;1717442;83;27291;-68
2022/12/16 02:11:28;;;;;;;223.72;103.95;;;;;;;-0.88;79.51;96277.83;1717205;83;25721;-70
2022/12/16 02:14:16;;;;;;;217.28;101.82;;;;;;;-0.85;79.51;96273.52;1716325;83;25808;-70
2022/12/16 02:16:54;;;;;;;212.63;102.65;;;;;;;-0.86;79.41;96275.84;1717076;83;25789;-67
2022/12/16 02:19:45;;;;;;;218.20;102.38;;;;;;;-0.88;79.41;96272.53;1715326;83;25809;-71
2022/12/16 02:22:53;;;;;;;206.85;100.55;;;;;;;-0.88;79.37;96276.00;1717363;83;28095;-70
2022/12/16 02:25:33;;;;;;;234.50;114.28;;;;;;;-0.96;79.33;96265.89;1708402;82;25886;-68
2022/12/16 02:28:25;;;;;;;226.32;107.45;;;;;;;-0.94;79.48;96269.20;1728797;83;25738;-69
2022/12/16 02:31:19;;;;;;;223.13;107.65;;;;;;;-0.95;79.44;96263.58;1708376;82;26172;-72
2022/12/16 02:34:37;;;;;;;218.82;107.85;;;;;;;-0.98;79.42;96250.69;1677358;84;26272;-68
2022/12/16 02:37:29;;;;;;;228.95;104.40;;;;;;;-1.01;79.46;96240.42;1574228;90;27821;-69
2022/12/16 02:39:58;;;;;;;;;;;;;;;-1.04;79.51;96231.48;1550223;92;25852;-68
2022/12/16 02:42:30;;;;;;;228.10;105.25;;;;;;;-1.04;79.65;96226.19;1527419;93;26204;-71
2022/12/16 02:45:11;;;;;;;229.97;106.12;;;;;;;-1.03;79.70;96219.89;1529134;93;26045;-68
2022/12/16 02:47:39;;;;;;;226.27;105.52;;;;;;;-1.04;79.66;96215.59;1514209;94;25906;-71
2022/12/16 02:50:23;;;;;;;233.57;108.12;;;;;;;-1.05;79.67;96208.64;1528264;93;27451;-70
2022/12/16 02:52:52;;;;;;;237.05;105.60;;;;;;;-1.08;79.63;96211.12;1475222;97;25795;-68
2022/12/16 02:55:20;;;;;;;220.88;102.85;;;;;;;-1.09;79.68;96208.17;1475560;97;25884;-68
2022/12/16 02:58:22;;;;;;;233.85;104.60;;;;;;;-1.06;79.84;96203.01;1475724;97;25882;-68
2022/12/16 03:01:20;;;;;;;225.57;105.87;;;;;;;-1.01;79.85;96200.70;1480007;95;25902;-68
2022/12/16 03:03:52;;;;;;;224.75;101.22;;;;;;;-1.00;79.79;96197.88;1502067;94;28256;-72
2022/12/16 03:06:20;;;;;;;218.37;101.85;;;;;;;-1.00;79.74;96207.15;1496782;95;25850;-68
2022/12/16 03:08:51;;;;;;;215.60;101.47;;;;;;;-0.98;79.77;96213.61;1513075;94;25818;-68
2022/12/16 03:11:18;;;;;;;211.82;99.40;;;;;;;-0.97;79.83;96204.17;1581222;89;26087;-68
2022/12/16 03:13:49;;;;;;;215.62;97.75;;;;;;;-0.94;79.75;96208.28;1551841;91;25794;-68
2022/12/16 03:16:20;;;;;;;214.70;101.22;;;;;;;-0.95;79.69;96202.66;1607534;89;27402;-69
2022/12/16 03:18:52;;;;;;;208.02;99.25;;;;;;;-0.97;79.70;96197.55;1620621;87;25853;-72
2022/12/16 03:21:21;;;;;;;172.90;83.22;;;;;;;-0.98;79.72;96191.92;1620581;87;25791;-68
2022/12/16 03:24:06;;;;;;;215.45;100.62;;;;;;;-0.97;79.71;96180.83;1620571;87;26490;-68
2022/12/16 03:26:47;;;;;;;215.77;99.52;;;;;;;-0.98;79.73;96169.91;1620291;87;25800;-71
2022/12/16 03:29:19;;;;;;;216.97;99.20;;;;;;;-0.96;79.78;96170.53;1629991;83;28254;-70
2022/12/16 03:32:00;;;;;;;208.87;97.75;;;;;;;-0.94;79.78;96169.87;1705309;82;26296;-68
2022/12/16 03:34:37;;;;;;;208.55;99.40;;;;;;;-0.93;79.76;96162.25;1708768;83;25770;-68
2022/12/16 03:37:08;;;;;;;218.20;101.95;;;;;;;-0.93;79.73;96156.95;1701368;82;26122;-70
2022/12/16 03:39:41;;;;;;;229.82;102.67;;;;;;;-0.94;79.73;96149.50;1675099;84;25770;-68
2022/12/16 03:42:10;;;;;;;225.82;99.90;;;;;;;-0.93;79.74;96139.73;1742036;78;28087;-68
2022/12/16 03:44:38;;;;;;;222.35;100.10;;;;;;;-0.91;79.75;96135.92;1779280;78;25730;-70
2022/12/16 03:47:05;;;;;;;191.60;87.60;;;;;;;-0.89;79.73;96134.44;1772804;78;25702;-70
2022/12/16 03:49:32;;;;;;;193.72;85.60;;;;;;;-0.91;79.72;96119.20;1778031;78;26246;-68
2022/12/16 03:51:58;;;;;;;172.93;77.32;;;;;;;-0.88;79.76;96112.25;1796592;78;26117;-68
2022/12/16 03:54:25;;;;;;;158.95;72.32;;;;;;;-0.88;79.68;96095.03;1802313;79;27925;-68
2022/12/16 03:56:52;;;;;;;175.35;74.70;;;;;;;-0.88;79.68;96091.87;1772103;78;25722;-68
2022/12/16 03:59:19;;;;;;;164.67;71.82;;;;;;;-0.85;79.64;96084.09;1733626;81;25675;-68
2022/12/16 04:01:45;;;;;;;152.07;70.30;;;;;;;-0.84;79.62;96091.02;1775354;78;26058;-71
2022/12/16 04:04:12;;;;;;;151.97;69.62;;;;;;;-0.84;79.62;96086.55;1781924;79;25868;-69
2022/12/16 04:06:39;;;;;;;144.50;68.10;;;;;;;-0.81;79.63;96066.83;1793417;79;27303;-68
2022/12/16 04:09:06;;;;;;;152.95;70.20;;;;;;;-0.80;79.54;96063.19;1781900;78;25661;-69
2022/12/16 04:25:30;;;;;;;192.50;90.47;;;;;;;-0.74;79.97;96043.96;1810221;76;25732;-72
2022/12/16 04:27:57;;;;;;;194.87;91.08;;;;;;;-0.72;79.84;96036.63;1714256;83;25779;-69
2022/12/16 04:30:26;;;;;;;206.60;93.87;;;;;;;-0.72;79.81;96053.36;1716483;82;25775;-68
